createdAt,value
2023-01-01T00:00:44.708Z,89.85
2023-01-01T00:02:07.339Z,90.09
2023-01-01T00:03:09.403Z,90.19
2023-01-01T00:04:14.643Z,90.30
2023-01-01T00:05:16.497Z,90.38
2023-01-01T00:06:18.439Z,90.53
2023-01-01T00:07:20.231Z,90.54
2023-01-01T00:08:21.980Z,90.65
2023-01-01T00:09:42.438Z,90.73
2023-01-01T00:10:44.238Z,90.73
2023-01-01T00:11:46.212Z,90.72
2023-01-01T00:12:47.964Z,90.76
2023-01-01T00:13:49.887Z,90.80
2023-01-01T00:14:51.919Z,90.80
2023-01-01T00:15:53.665Z,90.93
2023-01-01T00:16:56.457Z,90.88
2023-01-01T00:17:58.545Z,90.98
2023-01-01T00:19:00.351Z,90.92
2023-01-01T00:20:02.429Z,90.93
2023-01-01T00:21:08.087Z,90.90
2023-01-01T00:22:52.133Z,90.84
2023-01-01T00:23:32.062Z,90.83
2023-01-01T00:24:33.900Z,90.85
2023-01-01T00:25:35.813Z,90.71
2023-01-01T00:26:38.091Z,90.70
2023-01-01T00:27:40.542Z,90.51
2023-01-01T00:28:44.294Z,90.47
2023-01-01T00:29:46.127Z,90.53
2023-01-01T00:30:48.243Z,90.40
2023-01-01T00:31:50.056Z,90.38
2023-01-01T00:32:55.197Z,90.21
2023-01-01T00:33:58.743Z,90.17
2023-01-01T00:35:00.532Z,90.08
2023-01-01T00:36:10.167Z,90.08
2023-01-01T00:37:11.843Z,90.04
2023-01-01T00:38:13.659Z,90.01
2023-01-01T00:39:15.510Z,89.91
2023-01-01T00:40:18.613Z,89.81
2023-01-01T00:41:20.827Z,89.75
2023-01-01T00:42:22.946Z,89.65
2023-01-01T00:43:24.718Z,89.72
2023-01-01T00:44:26.498Z,89.71
2023-01-01T00:45:28.428Z,89.77
2023-01-01T00:46:31.064Z,89.77
2023-01-01T00:47:32.857Z,89.82
2023-01-01T00:48:34.893Z,89.81
2023-01-01T00:49:36.742Z,89.73
2023-01-01T00:50:38.720Z,89.80
2023-01-01T00:51:40.561Z,89.65
2023-01-01T00:52:42.332Z,89.69
2023-01-01T00:53:44.092Z,89.56
2023-01-01T00:54:45.833Z,89.53
2023-01-01T00:55:49.940Z,89.56
2023-01-01T00:56:51.713Z,89.38
2023-01-01T00:57:53.453Z,89.31
2023-01-01T00:59:00.602Z,89.44
2023-01-01T01:00:05.976Z,89.30
2023-01-01T01:01:08.205Z,89.22
2023-01-01T01:02:10.215Z,89.17
2023-01-01T01:03:27.982Z,89.28
2023-01-01T01:04:30.427Z,89.30
2023-01-01T01:05:33.296Z,89.24
2023-01-01T01:06:35.712Z,89.22
2023-01-01T01:07:38.793Z,89.15
2023-01-01T01:08:44.628Z,89.04
2023-01-01T01:09:46.408Z,89.12
2023-01-01T01:10:48.210Z,89.12
2023-01-01T01:11:50.359Z,89.02
2023-01-01T01:12:53.111Z,88.99
2023-01-01T01:13:56.850Z,88.91
2023-01-01T01:14:58.763Z,89.01
2023-01-01T01:16:00.742Z,88.96
2023-01-01T01:17:02.948Z,88.98
2023-01-01T01:18:04.831Z,88.91
2023-01-01T01:19:06.641Z,88.93
2023-01-01T01:20:09.378Z,88.85
2023-01-01T01:21:15.323Z,88.77
2023-01-01T01:22:17.780Z,88.71
2023-01-01T01:23:21.793Z,88.62
2023-01-01T01:24:23.580Z,88.42
2023-01-01T01:25:25.616Z,88.31
2023-01-01T01:26:32.924Z,88.30
2023-01-01T01:27:34.738Z,88.22
2023-01-01T01:28:36.656Z,88.21
2023-01-01T01:29:38.480Z,87.99
2023-01-01T01:30:40.391Z,87.88
2023-01-01T01:31:42.201Z,87.87
2023-01-01T01:32:44.183Z,87.60
2023-01-01T01:33:48.112Z,87.46
2023-01-01T01:34:50.182Z,87.36
2023-01-01T01:35:54.736Z,87.33
2023-01-01T01:36:56.791Z,87.21
2023-01-01T01:37:59.527Z,87.07
2023-01-01T01:39:01.363Z,86.96
2023-01-01T01:40:03.434Z,86.91
2023-01-01T01:41:05.865Z,86.80
2023-01-01T01:42:07.685Z,86.83
2023-01-01T01:43:22.066Z,86.73
2023-01-01T01:44:45.566Z,86.73
2023-01-01T01:45:48.304Z,86.75
2023-01-01T01:46:50.371Z,86.59
2023-01-01T01:47:56.715Z,86.62
2023-01-01T01:49:05.210Z,86.63
2023-01-01T01:50:25.532Z,86.66
2023-01-01T01:51:36.857Z,86.63
2023-01-01T01:52:47.632Z,86.64
2023-01-01T01:53:58.111Z,86.56
2023-01-01T01:55:03.364Z,86.53
2023-01-01T01:56:11.972Z,86.52
2023-01-01T01:57:14.556Z,86.35
2023-01-01T01:58:17.387Z,86.40
2023-01-01T01:59:22.603Z,86.40
2023-01-01T02:00:24.606Z,86.32
2023-01-01T02:01:27.472Z,86.36
2023-01-01T02:02:43.461Z,86.29
2023-01-01T02:03:55.507Z,86.37
2023-01-01T02:04:58.342Z,86.16
2023-01-01T02:06:02.507Z,86.12
2023-01-01T02:07:05.971Z,86.07
2023-01-01T02:08:09.872Z,85.98
2023-01-01T02:09:11.810Z,85.84
2023-01-01T02:10:13.629Z,85.91
2023-01-01T02:11:21.639Z,85.89
2023-01-01T02:12:25.078Z,85.76
2023-01-01T02:13:27.379Z,85.59
2023-01-01T02:14:29.145Z,85.51
2023-01-01T02:15:40.825Z,85.42
2023-01-01T02:16:58.497Z,85.28
2023-01-01T02:18:14.653Z,85.20
2023-01-01T02:19:40.727Z,84.98
2023-01-01T02:21:13.226Z,84.82
2023-01-01T02:22:38.872Z,84.68
2023-01-01T02:24:06.678Z,84.67
2023-01-01T02:25:23.485Z,84.58
2023-01-01T02:26:38.807Z,84.48
2023-01-01T02:28:02.625Z,84.44
2023-01-01T02:29:35.146Z,84.37
2023-01-01T02:30:42.052Z,84.33
2023-01-01T02:31:53.069Z,84.23
2023-01-01T02:33:06.726Z,84.17
2023-01-01T02:34:14.993Z,83.84
2023-01-01T02:35:35.311Z,83.63
2023-01-01T02:36:46.558Z,83.48
2023-01-01T02:37:53.645Z,83.44
2023-01-01T02:39:00.340Z,83.50
2023-01-01T02:40:03.091Z,83.36
2023-01-01T02:41:31.119Z,83.36
2023-01-01T02:42:33.749Z,83.32
2023-01-01T02:43:35.856Z,83.24
2023-01-01T02:44:45.083Z,83.25
2023-01-01T02:45:47.416Z,83.20
2023-01-01T02:46:49.297Z,83.17
2023-01-01T02:47:51.298Z,83.06
2023-01-01T02:48:53.559Z,82.94
2023-01-01T02:50:07.782Z,82.91
2023-01-01T02:51:18.186Z,82.93
2023-01-01T02:52:47.099Z,82.84
2023-01-01T02:54:07.600Z,82.70
2023-01-01T02:55:22.594Z,82.80
2023-01-01T02:56:45.639Z,82.70
2023-01-01T02:58:24.372Z,82.78
2023-01-01T02:59:47.764Z,82.35
2023-01-01T03:00:55.132Z,82.24
2023-01-01T03:02:16.211Z,82.20
2023-01-01T03:03:47.346Z,82.17
2023-01-01T03:05:15.530Z,82.04
2023-01-01T03:06:29.814Z,81.89
2023-01-01T03:07:50.532Z,81.87
2023-01-01T03:09:23.764Z,81.75
2023-01-01T03:10:31.487Z,81.82
2023-01-01T03:12:02.896Z,81.80
2023-01-01T03:13:22.990Z,81.74
2023-01-01T03:14:36.381Z,81.79
2023-01-01T03:15:50.785Z,81.67
2023-01-01T03:17:09.779Z,81.74
2023-01-01T03:18:19.487Z,81.46
2023-01-01T03:19:30.600Z,81.50
2023-01-01T03:20:38.355Z,81.48
2023-01-01T03:21:56.091Z,81.57
2023-01-01T03:23:07.178Z,81.50
2023-01-01T03:24:23.168Z,81.41
2023-01-01T03:25:31.547Z,81.43
2023-01-01T03:26:35.561Z,81.46
2023-01-01T03:27:57.386Z,81.40
2023-01-01T03:29:05.014Z,81.24
2023-01-01T03:30:11.910Z,81.20
2023-01-01T03:31:18.954Z,81.08
2023-01-01T03:32:52.681Z,81.03
2023-01-01T03:34:03.920Z,80.70
2023-01-01T03:35:06.331Z,80.63
2023-01-01T03:36:24.677Z,80.44
2023-01-01T03:37:31.935Z,80.35
2023-01-01T03:38:47.739Z,80.18
2023-01-01T03:39:53.563Z,80.21
2023-01-01T03:41:03.990Z,80.10
2023-01-01T03:42:25.775Z,80.07
2023-01-01T03:44:01.488Z,79.91
2023-01-01T03:45:21.516Z,79.82
2023-01-01T03:46:29.544Z,79.87
2023-01-01T03:47:33.031Z,79.79
2023-01-01T03:49:02.257Z,79.71
2023-01-01T03:50:06.494Z,79.68
2023-01-01T03:51:18.644Z,79.67
2023-01-01T03:52:27.659Z,79.52
2023-01-01T03:53:44.116Z,79.58
2023-01-01T03:54:59.269Z,79.55
2023-01-01T03:56:17.937Z,79.55
2023-01-01T03:57:30.131Z,79.55
2023-01-01T03:58:43.652Z,79.53
2023-01-01T03:59:57.992Z,79.48
2023-01-01T04:01:24.883Z,79.50
2023-01-01T04:02:36.974Z,79.36
2023-01-01T04:03:41.532Z,79.37
2023-01-01T04:04:43.872Z,79.33
2023-01-01T04:05:46.042Z,79.28
2023-01-01T04:06:48.106Z,79.33
2023-01-01T04:07:52.802Z,79.21
2023-01-01T04:09:00.191Z,79.13
2023-01-01T04:10:17.018Z,79.30
2023-01-01T04:11:44.161Z,79.35
2023-01-01T04:12:57.917Z,79.28
2023-01-01T04:13:59.601Z,79.35
2023-01-01T04:15:01.291Z,79.29
2023-01-01T04:16:03.895Z,79.31
2023-01-01T04:17:07.766Z,79.31
2023-01-01T04:18:09.497Z,79.28
2023-01-01T04:19:11.208Z,79.29
2023-01-01T04:20:14.010Z,79.34
2023-01-01T04:21:15.795Z,79.25
2023-01-01T04:22:18.139Z,79.27
2023-01-01T04:23:19.879Z,79.32
2023-01-01T04:24:23.056Z,79.41
2023-01-01T04:25:25.087Z,79.42
2023-01-01T04:26:26.784Z,79.28
2023-01-01T04:27:28.911Z,79.38
2023-01-01T04:28:30.661Z,79.39
2023-01-01T04:29:33.721Z,79.38
2023-01-01T04:31:36.200Z,79.46
2023-01-01T04:32:39.172Z,79.49
2023-01-01T04:33:40.962Z,79.40
2023-01-01T04:34:42.731Z,79.37
2023-01-01T04:35:44.517Z,79.41
2023-01-01T04:36:46.555Z,79.23
2023-01-01T04:37:48.406Z,79.03
2023-01-01T04:38:50.211Z,79.05
2023-01-01T04:39:52.677Z,78.89
2023-01-01T04:40:59.835Z,78.87
2023-01-01T04:42:01.797Z,78.75
2023-01-01T04:43:03.542Z,78.76
2023-01-01T04:44:05.388Z,78.73
2023-01-01T04:45:07.922Z,78.56
2023-01-01T04:46:09.999Z,78.58
2023-01-01T04:47:11.864Z,78.56
2023-01-01T04:48:13.843Z,78.53
2023-01-01T04:49:15.565Z,78.59
2023-01-01T04:50:17.373Z,78.41
2023-01-01T04:51:21.351Z,78.44
2023-01-01T04:52:23.248Z,78.38
2023-01-01T04:53:26.260Z,78.39
2023-01-01T04:54:28.051Z,78.28
2023-01-01T04:55:30.100Z,78.28
2023-01-01T04:56:31.851Z,78.34
2023-01-01T04:57:33.776Z,78.21
2023-01-01T04:58:37.451Z,78.17
2023-01-01T04:59:39.217Z,78.10
2023-01-01T05:00:41.269Z,77.95
2023-01-01T05:01:43.553Z,77.95
2023-01-01T05:02:45.494Z,77.95
2023-01-01T05:03:48.491Z,77.93
2023-01-01T05:04:50.279Z,77.69
2023-01-01T05:06:03.301Z,77.66
2023-01-01T05:07:05.008Z,77.72
2023-01-01T05:08:06.696Z,77.74
2023-01-01T05:09:11.890Z,77.81
2023-01-01T05:10:13.643Z,77.72
2023-01-01T05:11:20.997Z,77.85
2023-01-01T05:12:22.745Z,77.51
2023-01-01T05:13:24.456Z,77.47
2023-01-01T05:14:26.161Z,77.47
2023-01-01T05:15:27.864Z,77.31
2023-01-01T05:16:35.643Z,77.28
2023-01-01T05:17:37.452Z,77.35
2023-01-01T05:18:40.334Z,77.30
2023-01-01T05:19:42.196Z,77.18
2023-01-01T05:20:43.928Z,77.13
2023-01-01T05:21:46.435Z,77.13
2023-01-01T05:22:48.146Z,77.13
2023-01-01T05:23:54.126Z,77.10
2023-01-01T05:24:55.872Z,77.07
2023-01-01T05:25:57.881Z,77.09
2023-01-01T05:26:59.867Z,76.99
2023-01-01T05:28:01.674Z,77.07
2023-01-01T05:29:06.873Z,77.03
2023-01-01T05:30:13.649Z,76.94
2023-01-01T05:31:21.630Z,76.83
2023-01-01T05:32:23.434Z,76.88
2023-01-01T05:33:25.201Z,76.90
2023-01-01T05:34:27.404Z,76.93
2023-01-01T05:35:29.118Z,76.91
2023-01-01T05:36:34.201Z,76.88
2023-01-01T05:37:36.008Z,76.95
2023-01-01T05:38:37.783Z,76.80
2023-01-01T05:39:39.703Z,76.80
2023-01-01T05:40:41.528Z,76.82
2023-01-01T05:41:43.331Z,76.72
2023-01-01T05:42:47.301Z,76.69
2023-01-01T05:43:50.840Z,76.71
2023-01-01T05:44:52.668Z,76.68
2023-01-01T05:46:10.205Z,76.61
2023-01-01T05:47:12.322Z,76.71
2023-01-01T05:48:14.049Z,76.59
2023-01-01T05:49:16.731Z,76.49
2023-01-01T05:50:18.536Z,76.48
2023-01-01T05:51:26.202Z,76.58
2023-01-01T05:52:27.895Z,76.50
2023-01-01T05:53:31.111Z,76.64
2023-01-01T05:54:32.923Z,76.57
2023-01-01T05:55:35.200Z,76.62
2023-01-01T05:56:37.075Z,76.67
2023-01-01T05:57:38.797Z,76.67
2023-01-01T05:58:41.797Z,76.52
2023-01-01T05:59:43.557Z,76.54
2023-01-01T06:00:45.455Z,76.51
2023-01-01T06:01:47.186Z,76.39
2023-01-01T06:02:52.135Z,76.46
2023-01-01T06:03:56.016Z,76.32
2023-01-01T06:04:57.833Z,76.23
2023-01-01T06:06:07.450Z,76.18
2023-01-01T06:07:09.155Z,76.11
2023-01-01T06:08:11.300Z,76.11
2023-01-01T06:09:13.120Z,76.08
2023-01-01T06:10:14.873Z,75.95
2023-01-01T06:11:17.472Z,76.04
2023-01-01T06:12:19.302Z,75.96
2023-01-01T06:13:21.048Z,75.96
2023-01-01T06:14:22.835Z,76.14
2023-01-01T06:15:26.170Z,76.10
2023-01-01T06:16:30.095Z,76.10
2023-01-01T06:17:33.624Z,76.10
2023-01-01T06:18:35.971Z,76.11
2023-01-01T06:19:37.690Z,76.15
2023-01-01T06:20:39.416Z,76.26
2023-01-01T06:21:41.312Z,76.27
2023-01-01T06:22:43.167Z,76.32
2023-01-01T06:23:45.795Z,76.28
2023-01-01T06:24:47.494Z,76.45
2023-01-01T06:25:49.265Z,76.09
2023-01-01T06:26:51.182Z,76.07
2023-01-01T06:27:54.861Z,76.02
2023-01-01T06:28:58.117Z,76.02
2023-01-01T06:30:00.242Z,76.10
2023-01-01T06:31:08.254Z,75.97
2023-01-01T06:32:10.275Z,75.91
2023-01-01T06:33:11.983Z,75.81
2023-01-01T06:34:13.789Z,75.66
2023-01-01T06:35:15.758Z,75.44
2023-01-01T06:36:20.437Z,75.19
2023-01-01T06:37:22.299Z,74.99
2023-01-01T06:38:24.530Z,74.99
2023-01-01T06:39:26.286Z,74.98
2023-01-01T06:40:28.108Z,75.01
2023-01-01T06:41:31.546Z,74.81
2023-01-01T06:42:34.072Z,74.52
2023-01-01T06:43:36.834Z,74.39
2023-01-01T06:44:38.691Z,74.29
2023-01-01T06:45:40.425Z,74.19
2023-01-01T06:46:42.201Z,73.98
2023-01-01T06:47:44.063Z,73.90
2023-01-01T06:48:48.250Z,73.83
2023-01-01T06:49:50.002Z,73.80
2023-01-01T06:50:51.730Z,73.83
2023-01-01T06:51:53.707Z,73.75
2023-01-01T06:52:55.457Z,73.56
2023-01-01T06:54:02.586Z,73.73
2023-01-01T06:55:04.663Z,73.55
2023-01-01T06:56:07.087Z,73.33
2023-01-01T06:57:08.876Z,73.31
2023-01-01T06:58:10.668Z,73.35
2023-01-01T06:59:13.037Z,73.33
2023-01-01T07:00:15.715Z,73.11
2023-01-01T07:01:23.977Z,73.12
2023-01-01T07:02:26.111Z,73.17
2023-01-01T07:03:28.051Z,73.07
2023-01-01T07:04:29.821Z,73.00
2023-01-01T07:05:31.604Z,73.09
2023-01-01T07:06:35.422Z,72.90
2023-01-01T07:07:37.335Z,72.94
2023-01-01T07:08:39.002Z,72.71
2023-01-01T07:09:40.699Z,72.66
2023-01-01T07:10:42.472Z,72.64
2023-01-01T07:11:44.324Z,72.51
2023-01-01T07:12:46.019Z,72.38
2023-01-01T07:13:48.199Z,72.34
2023-01-01T07:14:49.935Z,72.44
2023-01-01T07:15:51.705Z,72.36
2023-01-01T07:16:53.496Z,72.25
2023-01-01T07:17:55.359Z,72.18
2023-01-01T07:18:57.665Z,72.12
2023-01-01T07:20:00.645Z,72.03
2023-01-01T07:21:04.629Z,71.85
2023-01-01T07:22:06.384Z,71.73
2023-01-01T07:23:10.816Z,71.67
2023-01-01T07:24:15.573Z,71.57
2023-01-01T07:25:17.267Z,71.40
2023-01-01T07:26:19.366Z,71.52
2023-01-01T07:27:21.226Z,71.37
2023-01-01T07:28:25.231Z,71.50
2023-01-01T07:29:27.016Z,71.24
2023-01-01T07:30:28.846Z,71.27
2023-01-01T07:31:30.767Z,71.21
2023-01-01T07:32:32.570Z,71.23
2023-01-01T07:33:34.557Z,71.17
2023-01-01T07:34:37.241Z,71.13
2023-01-01T07:35:39.796Z,71.17
2023-01-01T07:36:43.287Z,71.11
2023-01-01T07:37:45.652Z,70.98
2023-01-01T07:38:47.584Z,70.93
2023-01-01T07:39:49.698Z,71.00
2023-01-01T07:40:51.473Z,70.93
2023-01-01T07:41:53.204Z,70.92
2023-01-01T07:42:55.176Z,70.76
2023-01-01T07:43:57.002Z,70.72
2023-01-01T07:44:59.032Z,70.50
2023-01-01T07:46:01.951Z,70.50
2023-01-01T07:47:25.560Z,70.42
2023-01-01T07:48:28.377Z,70.08
2023-01-01T07:49:30.176Z,69.96
2023-01-01T07:50:33.059Z,69.94
2023-01-01T07:51:35.027Z,69.79
2023-01-01T07:52:37.064Z,69.75
2023-01-01T07:53:39.236Z,69.67
2023-01-01T07:54:40.949Z,69.51
2023-01-01T07:55:43.405Z,69.55
2023-01-01T07:56:45.181Z,69.54
2023-01-01T07:57:47.832Z,69.54
2023-01-01T07:58:50.358Z,69.41
2023-01-01T07:59:52.245Z,69.43
2023-01-01T08:00:55.518Z,69.32
2023-01-01T08:01:57.556Z,69.19
2023-01-01T08:02:59.724Z,69.07
2023-01-01T08:04:01.908Z,69.09
2023-01-01T08:05:04.458Z,69.22
2023-01-01T08:06:12.279Z,68.92
2023-01-01T08:07:14.044Z,68.98
2023-01-01T08:08:15.749Z,69.00
2023-01-01T08:09:17.746Z,69.10
2023-01-01T08:10:22.702Z,68.89
2023-01-01T08:11:24.668Z,68.78
2023-01-01T08:12:27.090Z,68.87
2023-01-01T08:13:28.892Z,68.77
2023-01-01T08:14:30.657Z,68.86
2023-01-01T08:15:33.296Z,68.87
2023-01-01T08:16:35.158Z,68.97
2023-01-01T08:17:44.289Z,68.99
2023-01-01T08:18:48.095Z,69.12
2023-01-01T08:19:50.956Z,68.83
2023-01-01T08:20:53.209Z,68.96
2023-01-01T08:21:54.989Z,68.94
2023-01-01T08:23:00.138Z,69.10
2023-01-01T08:24:05.506Z,68.95
2023-01-01T08:25:07.671Z,68.64
2023-01-01T08:26:16.489Z,68.59
2023-01-01T08:27:18.296Z,68.80
2023-01-01T08:28:20.322Z,68.72
2023-01-01T08:29:22.355Z,68.73
2023-01-01T08:30:24.563Z,68.69
2023-01-01T08:31:26.554Z,68.64
2023-01-01T08:32:28.462Z,68.56
2023-01-01T08:33:30.371Z,68.41
2023-01-01T08:34:32.240Z,68.50
2023-01-01T08:35:37.913Z,68.45
2023-01-01T08:36:41.151Z,68.31
2023-01-01T08:37:42.926Z,68.10
2023-01-01T08:38:44.629Z,68.32
2023-01-01T08:39:52.756Z,68.44
2023-01-01T08:40:54.654Z,68.35
2023-01-01T08:41:57.069Z,68.22
2023-01-01T08:42:59.198Z,68.10
2023-01-01T08:44:01.408Z,68.05
2023-01-01T08:45:03.578Z,68.02
2023-01-01T08:46:05.453Z,68.11
2023-01-01T08:47:15.331Z,68.06
2023-01-01T08:48:17.686Z,68.00
2023-01-01T08:49:19.735Z,67.76
2023-01-01T08:50:21.687Z,67.59
2023-01-01T08:51:23.507Z,67.69
2023-01-01T08:52:25.579Z,67.75
2023-01-01T08:53:29.739Z,67.98
2023-01-01T08:54:31.786Z,67.42
2023-01-01T08:55:33.526Z,67.56
2023-01-01T08:56:35.234Z,67.62
2023-01-01T08:57:37.157Z,67.41
2023-01-01T08:58:40.523Z,67.56
2023-01-01T08:59:42.424Z,67.30
2023-01-01T09:00:44.317Z,67.62
2023-01-01T09:01:46.387Z,67.55
2023-01-01T09:02:48.601Z,67.74
2023-01-01T09:03:50.585Z,67.52
2023-01-01T09:04:52.507Z,67.54
2023-01-01T09:05:54.527Z,67.63
2023-01-01T09:06:57.006Z,67.65
2023-01-01T09:07:59.230Z,67.77
2023-01-01T09:09:01.137Z,67.59
2023-01-01T09:10:03.471Z,67.76
2023-01-01T09:11:05.757Z,67.90
2023-01-01T09:12:09.269Z,67.86
2023-01-01T09:13:13.195Z,67.82
2023-01-01T09:14:15.098Z,67.64
2023-01-01T09:15:17.208Z,67.60
2023-01-01T09:16:20.354Z,67.57
2023-01-01T09:17:22.264Z,67.59
2023-01-01T09:18:24.318Z,67.49
2023-01-01T09:19:27.290Z,67.57
2023-01-01T09:20:29.214Z,67.52
2023-01-01T09:21:31.097Z,67.56
2023-01-01T09:22:33.885Z,67.53
2023-01-01T09:23:35.923Z,67.35
2023-01-01T09:24:38.460Z,67.45
2023-01-01T09:25:40.812Z,67.43
2023-01-01T09:26:42.686Z,67.32
2023-01-01T09:27:44.462Z,67.24
2023-01-01T09:28:46.541Z,67.31
2023-01-01T09:29:48.516Z,67.06
2023-01-01T09:30:50.413Z,67.11
2023-01-01T09:31:52.365Z,66.89
2023-01-01T09:32:54.456Z,66.75
2023-01-01T09:33:56.304Z,66.72
2023-01-01T09:34:58.150Z,66.82
2023-01-01T09:36:17.925Z,66.84
2023-01-01T09:37:20.035Z,66.94
2023-01-01T09:38:21.857Z,66.92
2023-01-01T09:39:23.703Z,66.89
2023-01-01T09:40:51.143Z,66.71
2023-01-01T09:42:03.532Z,66.90
2023-01-01T09:43:26.874Z,66.77
2023-01-01T09:44:44.340Z,66.44
2023-01-01T09:45:57.216Z,66.52
2023-01-01T09:47:03.160Z,66.48
2023-01-01T09:48:11.599Z,66.76
2023-01-01T09:49:45.055Z,66.50
2023-01-01T09:50:49.147Z,66.18
2023-01-01T09:51:58.296Z,66.47
2023-01-01T09:53:06.511Z,66.44
2023-01-01T09:54:29.429Z,66.52
2023-01-01T09:55:38.593Z,66.64
2023-01-01T09:56:41.073Z,66.47
2023-01-01T09:57:42.847Z,66.21
2023-01-01T09:58:44.903Z,66.32
2023-01-01T09:59:46.857Z,66.50
2023-01-01T10:00:54.360Z,66.45
2023-01-01T10:02:09.231Z,66.14
2023-01-01T10:03:33.024Z,66.22
2023-01-01T10:05:21.353Z,65.91
2023-01-01T10:06:33.681Z,65.81
2023-01-01T10:07:50.500Z,65.88
2023-01-01T10:08:58.144Z,66.08
2023-01-01T10:10:27.303Z,65.58
2023-01-01T10:11:47.754Z,65.63
2023-01-01T10:13:05.815Z,65.61
2023-01-01T10:14:32.913Z,65.43
2023-01-01T10:15:42.339Z,64.90
2023-01-01T10:16:49.375Z,64.91
2023-01-01T10:17:57.827Z,64.81
2023-01-01T10:19:16.210Z,64.88
2023-01-01T10:20:36.363Z,64.73
2023-01-01T10:21:47.148Z,64.59
2023-01-01T10:22:58.000Z,64.58
2023-01-01T10:24:06.085Z,64.60
2023-01-01T10:25:27.649Z,64.36
2023-01-01T10:26:34.906Z,64.13
2023-01-01T10:27:59.535Z,64.09
2023-01-01T10:29:31.620Z,64.11
2023-01-01T10:30:33.397Z,63.99
2023-01-01T10:31:40.502Z,63.66
2023-01-01T10:32:48.305Z,63.83
2023-01-01T10:33:50.109Z,64.01
2023-01-01T10:34:51.844Z,63.88
2023-01-01T10:35:56.858Z,63.73
2023-01-01T10:37:02.459Z,63.81
2023-01-01T10:38:05.808Z,63.89
2023-01-01T10:39:08.811Z,63.91
2023-01-01T10:40:17.306Z,63.64
2023-01-01T10:41:20.582Z,63.55
2023-01-01T10:42:22.447Z,63.24
2023-01-01T10:43:24.734Z,63.21
2023-01-01T10:44:34.480Z,63.05
2023-01-01T10:45:44.421Z,62.80
2023-01-01T10:46:56.514Z,62.53
2023-01-01T10:48:27.418Z,62.36
2023-01-01T10:49:29.244Z,62.54
2023-01-01T10:50:42.570Z,62.30
2023-01-01T10:51:53.811Z,62.10
2023-01-01T10:52:57.004Z,61.88
2023-01-01T10:54:00.032Z,61.66
2023-01-01T10:55:02.892Z,61.62
2023-01-01T10:56:04.734Z,61.37
2023-01-01T10:57:20.469Z,61.52
2023-01-01T10:58:41.181Z,61.13
2023-01-01T10:59:51.732Z,61.54
2023-01-01T11:01:01.717Z,61.29
2023-01-01T11:02:30.821Z,61.01
2023-01-01T11:03:33.284Z,60.53
2023-01-01T11:04:35.160Z,60.19
2023-01-01T11:05:36.961Z,59.75
2023-01-01T11:06:42.037Z,60.01
2023-01-01T11:07:44.942Z,59.33
2023-01-01T11:08:50.726Z,59.04
2023-01-01T11:10:04.491Z,58.57
2023-01-01T11:11:06.781Z,57.57
2023-01-01T11:12:54.679Z,56.97
2023-01-01T11:13:42.679Z,56.93
2023-01-01T11:14:53.334Z,56.68
2023-01-01T11:15:56.406Z,56.55
2023-01-01T11:16:59.701Z,56.40
2023-01-01T11:18:13.936Z,56.32
2023-01-01T11:19:45.597Z,55.72
2023-01-01T11:20:56.369Z,55.76
2023-01-01T11:21:58.868Z,56.37
2023-01-01T11:23:19.117Z,56.22
2023-01-01T11:24:27.141Z,56.27
2023-01-01T11:25:32.506Z,56.19
2023-01-01T11:26:34.279Z,56.30
2023-01-01T11:27:36.365Z,56.05
2023-01-01T11:28:40.316Z,55.96
2023-01-01T11:29:42.052Z,56.01
2023-01-01T11:31:02.299Z,55.72
2023-01-01T11:32:08.862Z,55.95
2023-01-01T11:33:16.937Z,55.91
2023-01-01T11:34:37.034Z,55.98
2023-01-01T11:35:50.750Z,56.06
2023-01-01T11:37:06.034Z,56.08
2023-01-01T11:38:24.356Z,56.11
2023-01-01T11:39:30.520Z,56.25
2023-01-01T11:40:32.220Z,56.25
2023-01-01T11:41:46.947Z,56.29
2023-01-01T11:42:58.326Z,56.28
2023-01-01T11:44:00.929Z,55.91
2023-01-01T11:45:13.041Z,55.93
2023-01-01T11:46:24.737Z,55.80
2023-01-01T11:47:32.141Z,55.96
2023-01-01T11:48:35.099Z,55.63
2023-01-01T11:49:36.945Z,55.75
2023-01-01T11:50:41.872Z,55.51
2023-01-01T11:51:43.752Z,55.62
2023-01-01T11:52:49.237Z,55.32
2023-01-01T11:53:50.986Z,55.00
2023-01-01T11:54:54.372Z,54.54
2023-01-01T11:56:02.385Z,54.38
2023-01-01T11:57:15.885Z,54.28
2023-01-01T11:58:52.328Z,53.59
2023-01-01T12:00:03.180Z,53.43
2023-01-01T12:01:26.810Z,53.54
2023-01-01T12:02:43.454Z,53.41
2023-01-01T12:04:07.992Z,53.43
2023-01-01T12:05:56.129Z,53.45
2023-01-01T12:07:09.258Z,53.57
2023-01-01T12:08:23.444Z,53.76
2023-01-01T12:10:04.519Z,53.75
2023-01-01T12:11:26.928Z,53.64
2023-01-01T12:12:42.745Z,53.38
2023-01-01T12:13:53.585Z,52.84
2023-01-01T12:15:18.258Z,52.60
2023-01-01T12:16:40.498Z,52.92
2023-01-01T12:18:10.255Z,52.83
2023-01-01T12:19:22.088Z,52.98
2023-01-01T12:20:34.710Z,52.75
2023-01-01T12:21:45.186Z,52.37
2023-01-01T12:22:55.122Z,52.45
2023-01-01T12:23:57.027Z,52.34
2023-01-01T12:25:00.399Z,52.47
2023-01-01T12:26:05.433Z,52.75
2023-01-01T12:27:16.482Z,52.52
2023-01-01T12:28:31.147Z,52.60
2023-01-01T12:29:54.478Z,52.50
2023-01-01T12:31:16.409Z,52.24
2023-01-01T12:32:53.178Z,52.40
2023-01-01T12:34:30.796Z,52.46
2023-01-01T12:35:55.347Z,52.05
2023-01-01T12:37:01.301Z,52.02
2023-01-01T12:38:22.164Z,52.41
2023-01-01T12:39:45.499Z,52.46
2023-01-01T12:41:13.489Z,52.89
2023-01-01T12:42:49.520Z,52.95
2023-01-01T12:44:03.952Z,52.94
2023-01-01T12:45:37.196Z,53.17
2023-01-01T12:46:48.741Z,53.25
2023-01-01T12:48:43.139Z,53.54
2023-01-01T12:49:53.648Z,53.77
2023-01-01T12:51:30.248Z,53.76
2023-01-01T12:53:04.671Z,53.79
2023-01-01T12:54:25.138Z,53.78
2023-01-01T12:55:57.759Z,53.61
2023-01-01T12:57:09.505Z,53.40
2023-01-01T12:58:21.839Z,53.47
2023-01-01T12:59:31.130Z,53.50
2023-01-01T13:00:38.647Z,53.45
2023-01-01T13:01:41.557Z,53.78
2023-01-01T13:02:54.474Z,53.90
2023-01-01T13:04:03.351Z,54.28
2023-01-01T13:05:18.994Z,54.50
2023-01-01T13:06:41.799Z,54.69
2023-01-01T13:07:50.588Z,54.72
2023-01-01T13:09:02.701Z,55.12
2023-01-01T13:10:23.836Z,55.36
2023-01-01T13:11:27.359Z,55.65
2023-01-01T13:12:32.830Z,55.57
2023-01-01T13:13:34.698Z,55.80
2023-01-01T13:14:41.870Z,55.88
2023-01-01T13:15:48.345Z,56.01
2023-01-01T13:16:56.585Z,56.12
2023-01-01T13:17:58.519Z,56.34
2023-01-01T13:19:03.090Z,56.39
2023-01-01T13:20:14.023Z,56.62
2023-01-01T13:21:15.746Z,56.77
2023-01-01T13:22:26.195Z,57.06
2023-01-01T13:23:34.704Z,57.10
2023-01-01T13:24:36.468Z,57.34
2023-01-01T13:25:38.214Z,57.43
2023-01-01T13:26:41.094Z,57.54
2023-01-01T13:27:59.396Z,57.79
2023-01-01T13:29:01.668Z,57.79
2023-01-01T13:30:03.872Z,58.06
2023-01-01T13:31:05.678Z,58.14
2023-01-01T13:32:08.936Z,58.23
2023-01-01T13:33:32.006Z,58.26
2023-01-01T13:34:37.614Z,58.29
2023-01-01T13:35:40.785Z,58.53
2023-01-01T13:36:42.697Z,58.63
2023-01-01T13:37:45.490Z,58.72
2023-01-01T13:38:59.061Z,59.16
2023-01-01T13:40:31.012Z,59.22
2023-01-01T13:41:41.143Z,59.54
2023-01-01T13:42:57.670Z,59.72
2023-01-01T13:44:05.461Z,59.80
2023-01-01T13:45:15.541Z,60.00
2023-01-01T13:46:28.691Z,60.10
2023-01-01T13:48:06.790Z,60.10
2023-01-01T13:49:30.336Z,60.31
2023-01-01T13:50:58.657Z,60.57
2023-01-01T13:52:15.924Z,60.60
2023-01-01T13:54:05.743Z,60.65
2023-01-01T13:55:39.990Z,61.10
2023-01-01T13:57:13.609Z,61.19
2023-01-01T13:58:26.147Z,61.34
2023-01-01T13:59:55.925Z,61.77
2023-01-01T14:01:12.841Z,61.66
2023-01-01T14:02:20.751Z,61.93
2023-01-01T14:03:27.334Z,62.06
2023-01-01T14:04:47.127Z,62.14
2023-01-01T14:05:56.496Z,62.43
2023-01-01T14:07:33.027Z,62.64
2023-01-01T14:08:37.649Z,62.90
2023-01-01T14:09:39.412Z,63.03
2023-01-01T14:10:50.091Z,63.19
2023-01-01T14:11:51.851Z,63.29
2023-01-01T14:12:56.560Z,63.51
2023-01-01T14:13:58.444Z,63.62
2023-01-01T14:15:15.170Z,63.68
2023-01-01T14:16:18.183Z,64.00
2023-01-01T14:17:21.120Z,64.15
2023-01-01T14:18:31.080Z,64.26
2023-01-01T14:19:33.343Z,64.56
2023-01-01T14:20:41.646Z,64.65
2023-01-01T14:21:45.874Z,64.77
2023-01-01T14:22:50.891Z,65.13
2023-01-01T14:24:08.446Z,65.24
2023-01-01T14:25:33.736Z,65.30
2023-01-01T14:26:39.564Z,65.63
2023-01-01T14:27:44.174Z,65.67
2023-01-01T14:28:47.267Z,65.91
2023-01-01T14:29:51.549Z,66.06
2023-01-01T14:30:56.663Z,66.21
2023-01-01T14:32:02.413Z,66.40